sensor_id;sensor_type;location;lat;lon;timestamp;pressure;altitude;pressure_sealevel;temperature;humidity
60087;BME280;45960;53.630;55.972;2023-09-19T00:00:18;100143.31;;;13.36;64.25
60087;BME280;45960;53.630;55.972;2023-09-19T00:01:22;100143.31;;;13.36;64.20
60087;BME280;45960;53.630;55.972;2023-09-19T00:02:23;100139.09;;;13.33;64.48
60087;BME280;45960;53.630;55.972;2023-09-19T00:03:24;100132.00;;;13.32;64.36
60087;BME280;45960;53.630;55.972;2023-09-19T00:04:26;100140.19;;;13.31;64.44
60087;BME280;45960;53.630;55.972;2023-09-19T00:05:33;100140.19;;;13.31;64.52
60087;BME280;45960;53.630;55.972;2023-09-19T00:06:36;100147.50;;;13.29;64.37
60087;BME280;45960;53.630;55.972;2023-09-19T00:07:37;100141.13;;;13.30;64.44
60087;BME280;45960;53.630;55.972;2023-09-19T00:08:38;100141.13;;;13.30;64.42
60087;BME280;45960;53.630;55.972;2023-09-19T00:09:39;100133.09;;;13.30;64.44
60087;BME280;45960;53.630;55.972;2023-09-19T00:10:41;100141.88;;;13.32;64.25
60087;BME280;45960;53.630;55.972;2023-09-19T00:11:43;100147.25;;;13.32;64.20
60087;BME280;45960;53.630;55.972;2023-09-19T00:12:45;100137.25;;;13.34;64.46
60087;BME280;45960;53.630;55.972;2023-09-19T00:13:49;100139.94;;;13.34;64.38
60087;BME280;45960;53.630;55.972;2023-09-19T00:14:50;100137.13;;;13.35;64.34
60087;BME280;45960;53.630;55.972;2023-09-19T00:15:53;100141.38;;;13.38;64.31
60087;BME280;45960;53.630;55.972;2023-09-19T00:16:56;100143.81;;;13.41;64.20
60087;BME280;45960;53.630;55.972;2023-09-19T00:17:58;100140.91;;;13.44;64.13
60087;BME280;45960;53.630;55.972;2023-09-19T00:18:59;100147.50;;;13.51;63.92
60087;BME280;45960;53.630;55.972;2023-09-19T00:20:04;100143.56;;;13.55;63.95
60087;BME280;45960;53.630;55.972;2023-09-19T00:21:08;100145.78;;;13.61;63.75
60087;BME280;45960;53.630;55.972;2023-09-19T00:22:10;100144.44;;;13.67;63.62
60087;BME280;45960;53.630;55.972;2023-09-19T00:23:14;100145.78;;;13.73;63.66
60087;BME280;45960;53.630;55.972;2023-09-19T00:24:15;100147.22;;;13.77;63.46
60087;BME280;45960;53.630;55.972;2023-09-19T00:25:18;100146.97;;;13.80;63.44
60087;BME280;45960;53.630;55.972;2023-09-19T00:26:19;100143.09;;;13.84;63.34
60087;BME280;45960;53.630;55.972;2023-09-19T00:27:23;100146.47;;;13.86;63.33
60087;BME280;45960;53.630;55.972;2023-09-19T00:28:24;100143.69;;;13.87;63.19
60087;BME280;45960;53.630;55.972;2023-09-19T00:29:25;100146.22;;;13.89;63.22
60087;BME280;45960;53.630;55.972;2023-09-19T00:30:30;100146.47;;;13.86;63.31
60087;BME280;45960;53.630;55.972;2023-09-19T00:31:31;100137.72;;;13.84;63.46
60087;BME280;45960;53.630;55.972;2023-09-19T00:32:32;100133.44;;;13.81;63.44
60087;BME280;45960;53.630;55.972;2023-09-19T00:33:33;100140.75;;;13.79;63.68
60087;BME280;45960;53.630;55.972;2023-09-19T00:34:34;100134.78;;;13.76;63.60
60087;BME280;45960;53.630;55.972;2023-09-19T00:35:36;100137.72;;;13.73;63.89
60087;BME280;45960;53.630;55.972;2023-09-19T00:36:37;100138.84;;;13.70;63.85
60087;BME280;45960;53.630;55.972;2023-09-19T00:37:43;100135.75;;;13.63;63.87
60087;BME280;45960;53.630;55.972;2023-09-19T00:38:44;100132.63;;;13.58;63.96
60087;BME280;45960;53.630;55.972;2023-09-19T00:39:47;100136.25;;;13.57;63.94
60087;BME280;45960;53.630;55.972;2023-09-19T00:40:48;100129.44;;;13.53;63.77
60087;BME280;45960;53.630;55.972;2023-09-19T00:41:51;100127.00;;;13.50;63.94
60087;BME280;45960;53.630;55.972;2023-09-19T00:42:57;100124.56;;;13.47;64.21
60087;BME280;45960;53.630;55.972;2023-09-19T00:44:00;100131.03;;;13.45;64.25
60087;BME280;45960;53.630;55.972;2023-09-19T00:45:05;100121.25;;;13.43;64.16
60087;BME280;45960;53.630;55.972;2023-09-19T00:46:06;100129.44;;;13.42;64.41
60087;BME280;45960;53.630;55.972;2023-09-19T00:47:08;100125.19;;;13.39;64.30
60087;BME280;45960;53.630;55.972;2023-09-19T00:48:10;100128.81;;;13.38;64.14
60087;BME280;45960;53.630;55.972;2023-09-19T00:49:11;100129.91;;;13.36;64.08
60087;BME280;45960;53.630;55.972;2023-09-19T00:50:15;100127.47;;;13.33;64.23
60087;BME280;45960;53.630;55.972;2023-09-19T00:51:20;100124.94;;;13.31;64.27
60087;BME280;45960;53.630;55.972;2023-09-19T00:52:23;100127.72;;;13.30;64.43
60087;BME280;45960;53.630;55.972;2023-09-19T00:53:24;100127.72;;;13.30;64.53
60087;BME280;45960;53.630;55.972;2023-09-19T00:54:26;100130.53;;;13.28;64.61
60087;BME280;45960;53.630;55.972;2023-09-19T00:55:29;100125.50;;;13.24;64.56
60087;BME280;45960;53.630;55.972;2023-09-19T00:56:30;100129.69;;;13.28;64.58
60087;BME280;45960;53.630;55.972;2023-09-19T00:57:33;100133.34;;;13.27;64.44
60087;BME280;45960;53.630;55.972;2023-09-19T00:58:35;100127.97;;;13.27;64.41
60087;BME280;45960;53.630;55.972;2023-09-19T00:59:37;100121.75;;;13.26;64.49
60087;BME280;45960;53.630;55.972;2023-09-19T01:00:40;100137.00;;;13.26;64.38
60087;BME280;45960;53.630;55.972;2023-09-19T01:01:41;100139.69;;;13.26;64.30
60087;BME280;45960;53.630;55.972;2023-09-19T01:02:47;100128.19;;;13.24;64.10
60087;BME280;45960;53.630;55.972;2023-09-19T01:03:49;100128.44;;;13.20;64.30
60087;BME280;45960;53.630;55.972;2023-09-19T01:04:50;100135.88;;;13.17;64.32
60087;BME280;45960;53.630;55.972;2023-09-19T01:05:52;100141.34;;;13.15;64.41
60087;BME280;45960;53.630;55.972;2023-09-19T01:06:54;100132.78;;;13.10;64.54
60087;BME280;45960;53.630;55.972;2023-09-19T01:07:55;100134.75;;;13.08;64.40
60087;BME280;45960;53.630;55.972;2023-09-19T01:08:57;100135.00;;;13.05;64.67
60087;BME280;45960;53.630;55.972;2023-09-19T01:09:58;100136.94;;;13.03;64.85
60087;BME280;45960;53.630;55.972;2023-09-19T01:11:06;100116.22;;;12.94;64.60
60087;BME280;45960;53.630;55.972;2023-09-19T01:12:10;100135.69;;;12.96;64.93
60087;BME280;45960;53.630;55.972;2023-09-19T01:13:31;100132.41;;;12.92;64.89
60087;BME280;45960;53.630;55.972;2023-09-19T01:15:01;100136.19;;;12.90;64.88
60087;BME280;45960;53.630;55.972;2023-09-19T01:17:30;100131.53;;;12.81;64.88
60087;BME280;45960;53.630;55.972;2023-09-19T01:22:50;100132.22;;;12.71;64.87
60087;BME280;45960;53.630;55.972;2023-09-19T01:24:04;100135.88;;;12.70;64.86
60087;BME280;45960;53.630;55.972;2023-09-19T01:26:37;100130.75;;;12.67;64.76
60087;BME280;45960;53.630;55.972;2023-09-19T01:30:43;100140.44;;;12.57;65.21
60087;BME280;45960;53.630;55.972;2023-09-19T01:31:45;100136.59;;;12.61;65.01
60087;BME280;45960;53.630;55.972;2023-09-19T01:32:50;100140.13;;;12.62;65.08
60087;BME280;45960;53.630;55.972;2023-09-19T01:34:02;100141.09;;;12.61;64.97
60087;BME280;45960;53.630;55.972;2023-09-19T01:35:08;100133.41;;;12.56;64.98
60087;BME280;45960;53.630;55.972;2023-09-19T01:36:13;100140.44;;;12.57;64.78
60087;BME280;45960;53.630;55.972;2023-09-19T01:37:18;100142.28;;;12.57;64.95
60087;BME280;45960;53.630;55.972;2023-09-19T01:38:20;100143.13;;;12.57;64.98
60087;BME280;45960;53.630;55.972;2023-09-19T01:39:21;100145.81;;;12.57;65.00
60087;BME280;45960;53.630;55.972;2023-09-19T01:40:22;100149.47;;;12.56;64.85
60087;BME280;45960;53.630;55.972;2023-09-19T01:41:54;100147.78;;;12.55;64.86
60087;BME280;45960;53.630;55.972;2023-09-19T01:43:10;100144.34;;;12.53;64.98
60087;BME280;45960;53.630;55.972;2023-09-19T01:44:19;100144.59;;;12.50;64.87
60087;BME280;45960;53.630;55.972;2023-09-19T01:45:45;100148.97;;;12.51;64.91
60087;BME280;45960;53.630;55.972;2023-09-19T01:46:47;100142.84;;;12.49;65.02
60087;BME280;45960;53.630;55.972;2023-09-19T01:47:51;100148.22;;;12.49;64.76
60087;BME280;45960;53.630;55.972;2023-09-19T01:50:35;100153.81;;;12.46;64.80
60087;BME280;45960;53.630;55.972;2023-09-19T01:52:11;100153.09;;;12.44;64.85
60087;BME280;45960;53.630;55.972;2023-09-19T01:53:22;100152.34;;;12.42;64.67
60087;BME280;45960;53.630;55.972;2023-09-19T01:54:36;100150.66;;;12.41;64.98
60087;BME280;45960;53.630;55.972;2023-09-19T01:55:44;100153.31;;;12.41;64.86
60087;BME280;45960;53.630;55.972;2023-09-19T01:57:09;100154.28;;;12.40;64.70
60087;BME280;45960;53.630;55.972;2023-09-19T01:58:35;100152.56;;;12.39;64.78
60087;BME280;45960;53.630;55.972;2023-09-19T01:59:50;100154.50;;;12.37;64.75
60087;BME280;45960;53.630;55.972;2023-09-19T02:00:54;100151.97;;;12.35;64.83
60087;BME280;45960;53.630;55.972;2023-09-19T02:01:56;100142.56;;;12.29;64.79
60087;BME280;45960;53.630;55.972;2023-09-19T02:02:58;100158.16;;;12.36;64.68
60087;BME280;45960;53.630;55.972;2023-09-19T02:04:01;100161.78;;;12.35;64.91
60087;BME280;45960;53.630;55.972;2023-09-19T02:05:03;100160.09;;;12.34;64.86
60087;BME280;45960;53.630;55.972;2023-09-19T02:06:04;100156.66;;;12.31;64.83
60087;BME280;45960;53.630;55.972;2023-09-19T02:07:06;100156.66;;;12.31;64.82
60087;BME280;45960;53.630;55.972;2023-09-19T02:08:08;100155.81;;;12.31;64.87
60087;BME280;45960;53.630;55.972;2023-09-19T02:09:09;100159.47;;;12.30;64.87
60087;BME280;45960;53.630;55.972;2023-09-19T02:10:10;100158.63;;;12.29;65.08
60087;BME280;45960;53.630;55.972;2023-09-19T02:11:13;100165.69;;;12.30;65.28
60087;BME280;45960;53.630;55.972;2023-09-19T02:12:14;100156.91;;;12.28;65.09
60087;BME280;45960;53.630;55.972;2023-09-19T02:13:17;100150.31;;;12.21;65.33
60087;BME280;45960;53.630;55.972;2023-09-19T02:14:19;100156.91;;;12.28;65.23
60087;BME280;45960;53.630;55.972;2023-09-19T02:15:20;100164.00;;;12.29;65.21
60087;BME280;45960;53.630;55.972;2023-09-19T02:16:22;100167.63;;;12.28;65.15
60087;BME280;45960;53.630;55.972;2023-09-19T02:17:23;100161.41;;;12.28;65.40
60087;BME280;45960;53.630;55.972;2023-09-19T02:18:26;100164.00;;;12.29;65.36
60087;BME280;45960;53.630;55.972;2023-09-19T02:19:29;100166.66;;;12.29;65.46
60087;BME280;45960;53.630;55.972;2023-09-19T02:20:30;100169.34;;;12.29;65.47
60087;BME280;45960;53.630;55.972;2023-09-19T02:21:32;100157.75;;;12.29;65.23
60087;BME280;45960;53.630;55.972;2023-09-19T02:22:33;100165.69;;;12.30;65.35
60087;BME280;45960;53.630;55.972;2023-09-19T02:23:34;100164.00;;;12.29;65.37
60087;BME280;45960;53.630;55.972;2023-09-19T02:24:36;100164.00;;;12.29;65.36
60087;BME280;45960;53.630;55.972;2023-09-19T02:25:39;100160.34;;;12.30;65.22
60087;BME280;45960;53.630;55.972;2023-09-19T02:26:42;100169.22;;;12.31;65.18
60087;BME280;45960;53.630;55.972;2023-09-19T02:27:43;100164.84;;;12.30;65.06
60087;BME280;45960;53.630;55.972;2023-09-19T02:28:44;100163.00;;;12.30;65.29
60087;BME280;45960;53.630;55.972;2023-09-19T02:29:46;100158.63;;;12.29;65.22
60087;BME280;45960;53.630;55.972;2023-09-19T02:30:48;100160.34;;;12.30;65.20
60087;BME280;45960;53.630;55.972;2023-09-19T02:31:52;100165.69;;;12.30;65.35
60087;BME280;45960;53.630;55.972;2023-09-19T02:32:56;100167.50;;;12.30;65.37
60087;BME280;45960;53.630;55.972;2023-09-19T02:33:57;100164.00;;;12.29;65.47
60087;BME280;45960;53.630;55.972;2023-09-19T02:34:58;100169.34;;;12.29;65.22
60087;BME280;45960;53.630;55.972;2023-09-19T02:35:59;100168.38;;;12.30;65.43
60087;BME280;45960;53.630;55.972;2023-09-19T02:37:05;100170.19;;;12.30;65.53
60087;BME280;45960;53.630;55.972;2023-09-19T02:38:06;100171.03;;;12.30;65.59
60087;BME280;45960;53.630;55.972;2023-09-19T02:39:12;100169.13;;;12.32;65.46
60087;BME280;45960;53.630;55.972;2023-09-19T02:40:14;100163.00;;;12.30;65.43
60087;BME280;45960;53.630;55.972;2023-09-19T02:41:21;100162.78;;;12.34;65.52
60087;BME280;45960;53.630;55.972;2023-09-19T02:42:22;100172.50;;;12.35;65.34
60087;BME280;45960;53.630;55.972;2023-09-19T02:43:23;100167.91;;;12.37;65.57
60087;BME280;45960;53.630;55.972;2023-09-19T02:44:24;100166.91;;;12.38;65.49
60087;BME280;45960;53.630;55.972;2023-09-19T02:45:25;100171.19;;;12.40;65.47
60087;BME280;45960;53.630;55.972;2023-09-19T02:46:26;100167.56;;;12.41;65.50
60087;BME280;45960;53.630;55.972;2023-09-19T02:47:27;100171.84;;;12.44;65.52
60087;BME280;45960;53.630;55.972;2023-09-19T02:48:29;100176.97;;;12.47;65.54
60087;BME280;45960;53.630;55.972;2023-09-19T02:49:33;100175.00;;;12.49;65.74
60087;BME280;45960;53.630;55.972;2023-09-19T02:50:35;100176.50;;;12.53;65.77
60087;BME280;45960;53.630;55.972;2023-09-19T02:51:36;100174.56;;;12.55;65.78
60087;BME280;45960;53.630;55.972;2023-09-19T02:52:37;100179.72;;;12.58;66.04
60087;BME280;45960;53.630;55.972;2023-09-19T02:53:38;100180.31;;;12.62;65.92
60087;BME280;45960;53.630;55.972;2023-09-19T02:54:39;100184.47;;;12.66;65.80
60087;BME280;45960;53.630;55.972;2023-09-19T02:55:40;100187.78;;;12.69;65.93
60087;BME280;45960;53.630;55.972;2023-09-19T02:56:41;100180.38;;;12.73;65.83
60087;BME280;45960;53.630;55.972;2023-09-19T02:57:49;100183.66;;;12.76;65.85
60087;BME280;45960;53.630;55.972;2023-09-19T02:58:51;100180.75;;;12.80;65.85
60087;BME280;45960;53.630;55.972;2023-09-19T02:59:52;100181.25;;;12.85;65.80
60087;BME280;45960;53.630;55.972;2023-09-19T03:00:53;100189.81;;;12.90;65.82
60087;BME280;45960;53.630;55.972;2023-09-19T03:01:56;100191.28;;;12.94;65.91
60087;BME280;45960;53.630;55.972;2023-09-19T03:02:57;100182.88;;;12.98;65.83
60087;BME280;45960;53.630;55.972;2023-09-19T03:03:58;100187.06;;;13.03;65.84
60087;BME280;45960;53.630;55.972;2023-09-19T03:04:59;100183.28;;;13.05;65.85
60087;BME280;45960;53.630;55.972;2023-09-19T03:06:00;100189.88;;;13.12;65.90
60087;BME280;45960;53.630;55.972;2023-09-19T03:07:04;100180.63;;;13.16;65.79
60087;BME280;45960;53.630;55.972;2023-09-19T03:08:06;100177.69;;;13.19;65.67
60087;BME280;45960;53.630;55.972;2023-09-19T03:09:07;100180.84;;;13.25;65.80
60087;BME280;45960;53.630;55.972;2023-09-19T03:10:14;100174.31;;;13.29;65.86
60087;BME280;45960;53.630;55.972;2023-09-19T03:11:17;100168.72;;;13.32;65.83
60087;BME280;45960;53.630;55.972;2023-09-19T03:12:22;100168.47;;;13.35;65.86
60087;BME280;45960;53.630;55.972;2023-09-19T03:13:23;100172.63;;;13.39;65.78
60087;BME280;45960;53.630;55.972;2023-09-19T03:14:25;100171.41;;;13.43;65.88
60087;BME280;45960;53.630;55.972;2023-09-19T03:15:26;100175.56;;;13.47;65.78
60087;BME280;45960;53.630;55.972;2023-09-19T03:16:27;100178.00;;;13.50;65.78
60087;BME280;45960;53.630;55.972;2023-09-19T03:17:35;100177.75;;;13.53;65.89
60087;BME280;45960;53.630;55.972;2023-09-19T03:18:37;100173.84;;;13.57;65.84
60087;BME280;45960;53.630;55.972;2023-09-19T03:19:38;100178.25;;;13.58;65.96
60087;BME280;45960;53.630;55.972;2023-09-19T03:20:40;100182.63;;;13.59;65.64
60087;BME280;45960;53.630;55.972;2023-09-19T03:21:41;100175.31;;;13.61;65.90
60087;BME280;45960;53.630;55.972;2023-09-19T03:22:43;100178.97;;;13.60;65.91
60087;BME280;45960;53.630;55.972;2023-09-19T03:23:44;100173.59;;;13.60;66.15
60087;BME280;45960;53.630;55.972;2023-09-19T03:24:46;100171.66;;;13.62;66.09
60087;BME280;45960;53.630;55.972;2023-09-19T03:25:47;100173.09;;;13.66;66.25
60087;BME280;45960;53.630;55.972;2023-09-19T03:26:49;100176.53;;;13.69;66.26
60087;BME280;45960;53.630;55.972;2023-09-19T03:27:50;100174.44;;;13.72;66.20
60087;BME280;45960;53.630;55.972;2023-09-19T03:28:51;100174.94;;;13.77;66.15
60087;BME280;45960;53.630;55.972;2023-09-19T03:29:53;100170.66;;;13.75;66.29
60087;BME280;45960;53.630;55.972;2023-09-19T03:31:02;100171.28;;;13.78;66.10
60087;BME280;45960;53.630;55.972;2023-09-19T03:32:05;100178.25;;;13.81;66.29
60087;BME280;45960;53.630;55.972;2023-09-19T03:33:06;100181.38;;;13.86;66.33
60087;BME280;45960;53.630;55.972;2023-09-19T03:34:09;100178.47;;;13.89;66.27
60087;BME280;45960;53.630;55.972;2023-09-19T03:35:11;100178.84;;;13.96;66.26
60087;BME280;45960;53.630;55.972;2023-09-19T03:36:15;100179.44;;;13.99;66.13
60087;BME280;45960;53.630;55.972;2023-09-19T03:37:16;100179.19;;;14.02;66.21
60087;BME280;45960;53.630;55.972;2023-09-19T03:38:18;100184.28;;;14.05;66.20
60087;BME280;45960;53.630;55.972;2023-09-19T03:39:19;100180.41;;;14.09;66.04
60087;BME280;45960;53.630;55.972;2023-09-19T03:40:20;100178.19;;;14.15;65.97
60087;BME280;45960;53.630;55.972;2023-09-19T03:41:23;100182.59;;;14.16;65.84
60087;BME280;45960;53.630;55.972;2023-09-19T03:42:24;100183.06;;;14.21;65.79
60087;BME280;45960;53.630;55.972;2023-09-19T03:43:28;100181.97;;;14.23;65.60
60087;BME280;45960;53.630;55.972;2023-09-19T03:44:30;100185.34;;;14.25;65.50
60087;BME280;45960;53.630;55.972;2023-09-19T03:45:31;100180.59;;;14.29;65.45
60087;BME280;45960;53.630;55.972;2023-09-19T03:46:32;100188.25;;;14.33;65.57
60087;BME280;45960;53.630;55.972;2023-09-19T03:47:34;100182.63;;;14.37;65.52
60087;BME280;45960;53.630;55.972;2023-09-19T03:48:36;100192.28;;;14.39;65.51
60087;BME280;45960;53.630;55.972;2023-09-19T03:49:38;100192.03;;;14.42;65.49
60087;BME280;45960;53.630;55.972;2023-09-19T03:50:39;100191.06;;;14.43;65.52
60087;BME280;45960;53.630;55.972;2023-09-19T03:51:40;100191.81;;;14.45;65.62
60087;BME280;45960;53.630;55.972;2023-09-19T03:52:42;100191.53;;;14.48;65.41
60087;BME280;45960;53.630;55.972;2023-09-19T03:53:43;100187.88;;;14.49;65.53
60087;BME280;45960;53.630;55.972;2023-09-19T03:54:44;100197.53;;;14.52;65.51
60087;BME280;45960;53.630;55.972;2023-09-19T03:55:46;100198.13;;;14.55;65.51
60087;BME280;45960;53.630;55.972;2023-09-19T03:56:47;100189.94;;;14.57;65.47
60087;BME280;45960;53.630;55.972;2023-09-19T03:57:48;100189.69;;;14.60;65.41
60087;BME280;45960;53.630;55.972;2023-09-19T03:58:50;100192.97;;;14.64;65.36
60087;BME280;45960;53.630;55.972;2023-09-19T03:59:52;100193.69;;;14.66;65.34
60087;BME280;45960;53.630;55.972;2023-09-19T04:00:57;100193.69;;;14.66;65.16
60087;BME280;45960;53.630;55.972;2023-09-19T04:01:59;100192.59;;;14.68;65.05
60087;BME280;45960;53.630;55.972;2023-09-19T04:03:00;100192.19;;;14.73;64.94
60087;BME280;45960;53.630;55.972;2023-09-19T04:04:06;100192.94;;;14.75;65.04
60087;BME280;45960;53.630;55.972;2023-09-19T04:05:10;100198.03;;;14.78;64.91
60087;BME280;45960;53.630;55.972;2023-09-19T04:06:15;100189.00;;;14.79;65.02
60087;BME280;45960;53.630;55.972;2023-09-19T04:07:17;100182.16;;;14.75;64.89
60087;BME280;45960;53.630;55.972;2023-09-19T04:08:18;100186.75;;;14.84;64.84
60087;BME280;45960;53.630;55.972;2023-09-19T04:09:19;100192.75;;;14.88;64.94
60087;BME280;45960;53.630;55.972;2023-09-19T04:10:20;100193.34;;;14.91;64.89
60087;BME280;45960;53.630;55.972;2023-09-19T04:11:21;100193.94;;;14.95;64.88
60087;BME280;45960;53.630;55.972;2023-09-19T04:12:22;100194.53;;;14.98;64.79
60087;BME280;45960;53.630;55.972;2023-09-19T04:13:23;100197.81;;;15.02;64.75
60087;BME280;45960;53.630;55.972;2023-09-19T04:14:24;100198.53;;;15.04;64.56
60087;BME280;45960;53.630;55.972;2023-09-19T04:15:25;100194.59;;;15.08;64.57
60087;BME280;45960;53.630;55.972;2023-09-19T04:16:29;100191.53;;;15.13;64.34
60087;BME280;45960;53.630;55.972;2023-09-19T04:17:31;100196.63;;;15.16;64.14
60087;BME280;45960;53.630;55.972;2023-09-19T04:18:33;100198.34;;;15.17;63.98
60087;BME280;45960;53.630;55.972;2023-09-19T04:19:38;100198.06;;;15.20;63.80
60087;BME280;45960;53.630;55.972;2023-09-19T04:20:40;100203.44;;;15.20;63.81
60087;BME280;45960;53.630;55.972;2023-09-19T04:21:42;100201.50;;;15.22;63.92
60087;BME280;45960;53.630;55.972;2023-09-19T04:22:44;100208.28;;;15.26;63.84
60087;BME280;45960;53.630;55.972;2023-09-19T04:23:45;100197.41;;;15.28;63.64
60087;BME280;45960;53.630;55.972;2023-09-19T04:24:45;100206.06;;;15.31;63.62
60087;BME280;45960;53.630;55.972;2023-09-19T04:25:47;100196.75;;;15.35;63.42
60087;BME280;45960;53.630;55.972;2023-09-19T04:26:48;100205.53;;;15.37;63.05
60087;BME280;45960;53.630;55.972;2023-09-19T04:27:49;100199.91;;;15.40;63.23
60087;BME280;45960;53.630;55.972;2023-09-19T04:28:50;100206.72;;;15.44;62.87
60087;BME280;45960;53.630;55.972;2023-09-19T04:29:52;100199.09;;;15.50;62.86
60087;BME280;45960;53.630;55.972;2023-09-19T04:30:53;100202.25;;;15.55;62.73
60087;BME280;45960;53.630;55.972;2023-09-19T04:31:56;100203.69;;;15.59;62.31
60087;BME280;45960;53.630;55.972;2023-09-19T04:33:00;100190.38;;;15.57;62.20
60087;BME280;45960;53.630;55.972;2023-09-19T04:34:03;100200.59;;;15.63;62.36
60087;BME280;45960;53.630;55.972;2023-09-19T04:35:04;100202.00;;;15.67;62.16
60087;BME280;45960;53.630;55.972;2023-09-19T04:36:06;100197.25;;;15.71;62.16
60087;BME280;45960;53.630;55.972;2023-09-19T04:37:07;100200.09;;;15.79;61.65
60087;BME280;45960;53.630;55.972;2023-09-19T04:38:08;100199.59;;;15.85;61.49
60087;BME280;45960;53.630;55.972;2023-09-19T04:39:09;100202.00;;;15.88;61.13
60087;BME280;45960;53.630;55.972;2023-09-19T04:40:13;100203.69;;;15.89;60.85
60087;BME280;45960;53.630;55.972;2023-09-19T04:41:18;100209.81;;;15.92;60.68
60087;BME280;45960;53.630;55.972;2023-09-19T04:42:19;100222.00;;;15.96;60.54
60087;BME280;45960;53.630;55.972;2023-09-19T04:43:20;100212.69;;;16.00;60.33
60087;BME280;45960;53.630;55.972;2023-09-19T04:44:21;100203.88;;;16.07;60.04
60087;BME280;45960;53.630;55.972;2023-09-19T04:45:22;100208.16;;;16.10;59.94
60087;BME280;45960;53.630;55.972;2023-09-19T04:46:24;100206.19;;;16.12;59.77
60087;BME280;45960;53.630;55.972;2023-09-19T04:47:25;100211.88;;;16.19;59.69
60087;BME280;45960;53.630;55.972;2023-09-19T04:48:26;100201.41;;;16.25;59.68
60087;BME280;45960;53.630;55.972;2023-09-19T04:49:27;100203.53;;;16.31;59.73
60087;BME280;45960;53.630;55.972;2023-09-19T04:50:28;100187.81;;;16.37;59.83
60087;BME280;45960;53.630;55.972;2023-09-19T04:51:30;100205.09;;;16.44;59.23
60087;BME280;45960;53.630;55.972;2023-09-19T04:52:35;100205.41;;;16.50;59.17
60087;BME280;45960;53.630;55.972;2023-09-19T04:53:36;100205.84;;;16.55;59.00
60087;BME280;45960;53.630;55.972;2023-09-19T04:54:36;100208.00;;;16.62;58.72
60087;BME280;45960;53.630;55.972;2023-09-19T04:55:38;100202.03;;;16.68;58.54
60087;BME280;45960;53.630;55.972;2023-09-19T04:56:39;100197.19;;;16.71;58.23
60087;BME280;45960;53.630;55.972;2023-09-19T04:57:41;100196.66;;;16.77;58.13
60087;BME280;45960;53.630;55.972;2023-09-19T04:58:42;100198.81;;;16.84;58.09
60087;BME280;45960;53.630;55.972;2023-09-19T04:59:43;100193.84;;;16.89;58.15
60087;BME280;45960;53.630;55.972;2023-09-19T05:00:44;100198.66;;;16.95;57.93
60087;BME280;45960;53.630;55.972;2023-09-19T05:01:45;100187.41;;;16.99;57.77
60087;BME280;45960;53.630;55.972;2023-09-19T05:02:49;100197.78;;;17.04;57.58
60087;BME280;45960;53.630;55.972;2023-09-19T05:03:50;100190.25;;;17.08;57.79
60087;BME280;45960;53.630;55.972;2023-09-19T05:04:53;100194.09;;;17.15;58.05
60087;BME280;45960;53.630;55.972;2023-09-19T05:05:54;100203.44;;;17.20;57.81
60087;BME280;45960;53.630;55.972;2023-09-19T05:06:55;100197.75;;;17.23;57.35
60087;BME280;45960;53.630;55.972;2023-09-19T05:07:56;100194.78;;;17.27;57.54
60087;BME280;45960;53.630;55.972;2023-09-19T05:08:57;100190.63;;;17.32;57.51
60087;BME280;45960;53.630;55.972;2023-09-19T05:09:58;100190.88;;;17.39;57.39
60087;BME280;45960;53.630;55.972;2023-09-19T05:11:02;100193.47;;;17.40;56.83
60087;BME280;45960;53.630;55.972;2023-09-19T05:12:03;100193.28;;;17.42;56.94
60087;BME280;45960;53.630;55.972;2023-09-19T05:13:04;100194.44;;;17.49;56.71
60087;BME280;45960;53.630;55.972;2023-09-19T05:14:05;100191.13;;;17.55;56.82
60087;BME280;45960;53.630;55.972;2023-09-19T05:15:07;100197.66;;;17.62;56.28
60087;BME280;45960;53.630;55.972;2023-09-19T05:16:08;100195.38;;;17.58;55.59
60087;BME280;45960;53.630;55.972;2023-09-19T05:17:11;100198.69;;;17.52;55.44
60087;BME280;45960;53.630;55.972;2023-09-19T05:18:12;100191.13;;;17.55;55.58
60087;BME280;45960;53.630;55.972;2023-09-19T05:19:13;100185.13;;;17.61;55.85
60087;BME280;45960;53.630;55.972;2023-09-19T05:20:14;100188.66;;;17.72;55.53
60087;BME280;45960;53.630;55.972;2023-09-19T05:21:16;100190.50;;;17.81;55.18
60087;BME280;45960;53.630;55.972;2023-09-19T05:22:18;100195.03;;;17.90;54.74
60087;BME280;45960;53.630;55.972;2023-09-19T05:23:19;100191.41;;;17.99;54.23
60087;BME280;45960;53.630;55.972;2023-09-19T05:24:21;100193.22;;;18.08;54.17
60087;BME280;45960;53.630;55.972;2023-09-19T05:25:24;100197.56;;;18.19;54.23
60087;BME280;45960;53.630;55.972;2023-09-19T05:26:25;100193.94;;;18.28;54.08
60087;BME280;45960;53.630;55.972;2023-09-19T05:27:26;100193.91;;;18.38;54.03
60087;BME280;45960;53.630;55.972;2023-09-19T05:28:27;100188.72;;;18.45;54.09
60087;BME280;45960;53.630;55.972;2023-09-19T05:29:28;100188.97;;;18.51;53.68
60087;BME280;45960;53.630;55.972;2023-09-19T05:30:29;100191.72;;;18.60;53.61
60087;BME280;45960;53.630;55.972;2023-09-19T05:31:30;100191.44;;;18.63;53.67
60087;BME280;45960;53.630;55.972;2023-09-19T05:32:31;100200.03;;;18.76;53.70
60087;BME280;45960;53.630;55.972;2023-09-19T05:33:32;100192.16;;;18.83;53.01
60087;BME280;45960;53.630;55.972;2023-09-19T05:34:33;100194.06;;;18.90;52.62
60087;BME280;45960;53.630;55.972;2023-09-19T05:35:35;100188.91;;;18.97;52.21
60087;BME280;45960;53.630;55.972;2023-09-19T05:36:40;100194.53;;;19.04;51.92